sensor_id;sensor_type;location;lat;lon;timestamp;temperature;humidity
68485;DHT22;55472;50.060;21.960;2022-12-29T00:00:12;1.60;76.50
68485;DHT22;55472;50.060;21.960;2022-12-29T00:02:59;1.60;76.70
68485;DHT22;55472;50.060;21.960;2022-12-29T00:05:25;1.60;76.70
68485;DHT22;55472;50.060;21.960;2022-12-29T00:07:51;1.60;76.80
68485;DHT22;55472;50.060;21.960;2022-12-29T00:10:17;1.60;76.80
68485;DHT22;55472;50.060;21.960;2022-12-29T00:12:44;1.60;76.70
68485;DHT22;55472;50.060;21.960;2022-12-29T00:15:35;1.50;76.80
68485;DHT22;55472;50.060;21.960;2022-12-29T00:18:05;1.50;76.80
68485;DHT22;55472;50.060;21.960;2022-12-29T00:20:36;1.50;76.80
68485;DHT22;55472;50.060;21.960;2022-12-29T00:23:21;1.50;77.00
68485;DHT22;55472;50.060;21.960;2022-12-29T00:26:13;1.50;76.90
68485;DHT22;55472;50.060;21.960;2022-12-29T00:28:59;1.50;76.80
68485;DHT22;55472;50.060;21.960;2022-12-29T00:31:44;1.50;76.80
68485;DHT22;55472;50.060;21.960;2022-12-29T00:34:29;1.40;76.80
68485;DHT22;55472;50.060;21.960;2022-12-29T00:37:14;1.50;76.50
68485;DHT22;55472;50.060;21.960;2022-12-29T00:39:40;1.50;76.50
68485;DHT22;55472;50.060;21.960;2022-12-29T00:42:25;1.50;76.30
68485;DHT22;55472;50.060;21.960;2022-12-29T00:45:09;1.50;76.30
68485;DHT22;55472;50.060;21.960;2022-12-29T00:47:35;1.50;76.10
68485;DHT22;55472;50.060;21.960;2022-12-29T00:50:02;1.50;76.20
68485;DHT22;55472;50.060;21.960;2022-12-29T00:52:28;1.50;76.10
68485;DHT22;55472;50.060;21.960;2022-12-29T00:54:54;1.60;75.70
68485;DHT22;55472;50.060;21.960;2022-12-29T00:57:20;1.60;75.50
68485;DHT22;55472;50.060;21.960;2022-12-29T00:59:47;1.60;75.40
68485;DHT22;55472;50.060;21.960;2022-12-29T01:02:13;1.70;75.00
68485;DHT22;55472;50.060;21.960;2022-12-29T01:04:39;1.70;74.80
68485;DHT22;55472;50.060;21.960;2022-12-29T01:07:05;1.70;74.60
68485;DHT22;55472;50.060;21.960;2022-12-29T01:09:32;1.80;74.30
68485;DHT22;55472;50.060;21.960;2022-12-29T01:12:17;1.80;74.10
68485;DHT22;55472;50.060;21.960;2022-12-29T01:15:04;1.80;74.20
68485;DHT22;55472;50.060;21.960;2022-12-29T01:17:30;1.80;74.10
68485;DHT22;55472;50.060;21.960;2022-12-29T01:19:56;1.80;73.90
68485;DHT22;55472;50.060;21.960;2022-12-29T01:22:22;1.90;73.50
68485;DHT22;55472;50.060;21.960;2022-12-29T01:24:49;1.90;73.70
68485;DHT22;55472;50.060;21.960;2022-12-29T01:27:15;1.90;73.70
68485;DHT22;55472;50.060;21.960;2022-12-29T01:29:41;1.90;73.40
68485;DHT22;55472;50.060;21.960;2022-12-29T01:32:07;1.90;73.30
68485;DHT22;55472;50.060;21.960;2022-12-29T01:34:34;1.90;73.40
68485;DHT22;55472;50.060;21.960;2022-12-29T01:37:00;1.90;73.50
68485;DHT22;55472;50.060;21.960;2022-12-29T01:39:26;1.90;73.20
68485;DHT22;55472;50.060;21.960;2022-12-29T01:41:52;1.90;73.10
68485;DHT22;55472;50.060;21.960;2022-12-29T01:44:56;1.90;72.90
68485;DHT22;55472;50.060;21.960;2022-12-29T01:47:31;2.00;72.70
68485;DHT22;55472;50.060;21.960;2022-12-29T01:50:11;1.90;72.70
68485;DHT22;55472;50.060;21.960;2022-12-29T01:52:47;1.90;72.70
68485;DHT22;55472;50.060;21.960;2022-12-29T01:55:17;1.90;72.60
68485;DHT22;55472;50.060;21.960;2022-12-29T01:57:47;2.00;72.50
68485;DHT22;55472;50.060;21.960;2022-12-29T02:00:16;1.90;72.40
68485;DHT22;55472;50.060;21.960;2022-12-29T02:02:51;2.00;72.30
68485;DHT22;55472;50.060;21.960;2022-12-29T02:05:50;2.00;72.30
68485;DHT22;55472;50.060;21.960;2022-12-29T02:08:22;1.90;72.20
68485;DHT22;55472;50.060;21.960;2022-12-29T02:10:51;2.00;72.00
68485;DHT22;55472;50.060;21.960;2022-12-29T02:13:17;2.00;72.00
68485;DHT22;55472;50.060;21.960;2022-12-29T02:30:04;1.90;71.90
68485;DHT22;55472;50.060;21.960;2022-12-29T02:44:52;2.00;70.70
68485;DHT22;55472;50.060;21.960;2022-12-29T02:50:52;2.10;70.10
68485;DHT22;55472;50.060;21.960;2022-12-29T02:53:25;2.10;69.90
68485;DHT22;55472;50.060;21.960;2022-12-29T02:56:11;2.10;69.80
68485;DHT22;55472;50.060;21.960;2022-12-29T02:58:37;2.10;69.90
68485;DHT22;55472;50.060;21.960;2022-12-29T03:01:08;2.10;69.90
68485;DHT22;55472;50.060;21.960;2022-12-29T03:12:37;2.10;69.10
68485;DHT22;55472;50.060;21.960;2022-12-29T03:15:42;2.10;69.10
68485;DHT22;55472;50.060;21.960;2022-12-29T03:21:54;2.20;69.10
68485;DHT22;55472;50.060;21.960;2022-12-29T03:24:44;2.20;68.80
68485;DHT22;55472;50.060;21.960;2022-12-29T03:27:16;2.20;68.60
68485;DHT22;55472;50.060;21.960;2022-12-29T03:29:52;2.30;68.50
68485;DHT22;55472;50.060;21.960;2022-12-29T03:32:26;2.30;68.40
68485;DHT22;55472;50.060;21.960;2022-12-29T03:34:58;2.30;68.20
68485;DHT22;55472;50.060;21.960;2022-12-29T03:37:29;2.30;67.90
68485;DHT22;55472;50.060;21.960;2022-12-29T03:40:00;2.30;68.10
68485;DHT22;55472;50.060;21.960;2022-12-29T03:42:28;2.30;67.90
68485;DHT22;55472;50.060;21.960;2022-12-29T03:44:57;2.30;67.90
68485;DHT22;55472;50.060;21.960;2022-12-29T03:47:24;2.30;67.60
68485;DHT22;55472;50.060;21.960;2022-12-29T03:49:51;2.40;67.40
68485;DHT22;55472;50.060;21.960;2022-12-29T03:52:17;2.30;67.70
68485;DHT22;55472;50.060;21.960;2022-12-29T03:54:44;2.40;67.40
68485;DHT22;55472;50.060;21.960;2022-12-29T03:57:10;2.40;67.60
68485;DHT22;55472;50.060;21.960;2022-12-29T03:59:37;2.40;67.30
68485;DHT22;55472;50.060;21.960;2022-12-29T04:02:03;2.30;67.40
68485;DHT22;55472;50.060;21.960;2022-12-29T04:04:29;2.40;67.00
68485;DHT22;55472;50.060;21.960;2022-12-29T04:06:55;2.40;67.10
68485;DHT22;55472;50.060;21.960;2022-12-29T04:09:22;2.30;67.00
68485;DHT22;55472;50.060;21.960;2022-12-29T04:11:48;2.40;67.00
68485;DHT22;55472;50.060;21.960;2022-12-29T04:14:14;2.40;66.70
68485;DHT22;55472;50.060;21.960;2022-12-29T04:16:40;2.40;66.80
68485;DHT22;55472;50.060;21.960;2022-12-29T04:19:07;2.40;66.60
68485;DHT22;55472;50.060;21.960;2022-12-29T04:21:33;2.40;66.70
68485;DHT22;55472;50.060;21.960;2022-12-29T04:24:00;2.40;66.30
68485;DHT22;55472;50.060;21.960;2022-12-29T04:26:26;2.50;66.00
68485;DHT22;55472;50.060;21.960;2022-12-29T04:28:53;2.50;65.70
68485;DHT22;55472;50.060;21.960;2022-12-29T04:31:19;2.60;65.80
68485;DHT22;55472;50.060;21.960;2022-12-29T04:33:45;2.60;65.60
68485;DHT22;55472;50.060;21.960;2022-12-29T04:36:11;2.60;65.50
68485;DHT22;55472;50.060;21.960;2022-12-29T04:38:38;2.50;65.60
68485;DHT22;55472;50.060;21.960;2022-12-29T04:41:04;2.50;65.60
68485;DHT22;55472;50.060;21.960;2022-12-29T04:43:30;2.60;65.50
68485;DHT22;55472;50.060;21.960;2022-12-29T04:45:56;2.60;65.40
68485;DHT22;55472;50.060;21.960;2022-12-29T04:48:23;2.50;65.40
68485;DHT22;55472;50.060;21.960;2022-12-29T04:50:49;2.60;65.30
68485;DHT22;55472;50.060;21.960;2022-12-29T04:53:16;2.60;65.40
68485;DHT22;55472;50.060;21.960;2022-12-29T04:55:43;2.60;65.80
68485;DHT22;55472;50.060;21.960;2022-12-29T04:58:09;2.60;65.60
68485;DHT22;55472;50.060;21.960;2022-12-29T05:00:35;2.60;65.70
68485;DHT22;55472;50.060;21.960;2022-12-29T05:03:02;2.60;65.70
68485;DHT22;55472;50.060;21.960;2022-12-29T05:05:28;2.50;65.60
68485;DHT22;55472;50.060;21.960;2022-12-29T05:07:55;2.60;65.40
68485;DHT22;55472;50.060;21.960;2022-12-29T05:10:21;2.60;65.50
68485;DHT22;55472;50.060;21.960;2022-12-29T05:12:47;2.60;65.20
68485;DHT22;55472;50.060;21.960;2022-12-29T05:15:14;2.60;65.30
68485;DHT22;55472;50.060;21.960;2022-12-29T05:17:40;2.60;65.40
68485;DHT22;55472;50.060;21.960;2022-12-29T05:20:07;2.60;65.40
68485;DHT22;55472;50.060;21.960;2022-12-29T05:22:33;2.60;65.30
68485;DHT22;55472;50.060;21.960;2022-12-29T05:24:59;2.60;65.20
68485;DHT22;55472;50.060;21.960;2022-12-29T05:27:26;2.70;65.10
68485;DHT22;55472;50.060;21.960;2022-12-29T05:29:52;2.70;64.90
68485;DHT22;55472;50.060;21.960;2022-12-29T05:32:18;2.70;65.20
68485;DHT22;55472;50.060;21.960;2022-12-29T05:34:44;2.70;65.00
68485;DHT22;55472;50.060;21.960;2022-12-29T05:37:11;2.70;65.00
68485;DHT22;55472;50.060;21.960;2022-12-29T05:39:37;2.70;65.10
68485;DHT22;55472;50.060;21.960;2022-12-29T05:42:04;2.70;65.10
68485;DHT22;55472;50.060;21.960;2022-12-29T05:44:30;2.70;64.80
68485;DHT22;55472;50.060;21.960;2022-12-29T05:46:56;2.70;64.90
68485;DHT22;55472;50.060;21.960;2022-12-29T05:49:22;2.70;65.00
68485;DHT22;55472;50.060;21.960;2022-12-29T05:51:48;2.70;65.30
68485;DHT22;55472;50.060;21.960;2022-12-29T05:54:14;2.70;65.30
68485;DHT22;55472;50.060;21.960;2022-12-29T05:56:41;2.70;65.30
68485;DHT22;55472;50.060;21.960;2022-12-29T05:59:07;2.70;65.40
68485;DHT22;55472;50.060;21.960;2022-12-29T06:01:33;2.70;65.20
68485;DHT22;55472;50.060;21.960;2022-12-29T06:04:00;2.70;65.20
68485;DHT22;55472;50.060;21.960;2022-12-29T06:06:26;2.70;65.20
68485;DHT22;55472;50.060;21.960;2022-12-29T06:08:52;2.70;65.00
68485;DHT22;55472;50.060;21.960;2022-12-29T06:11:19;2.70;64.90
68485;DHT22;55472;50.060;21.960;2022-12-29T06:13:45;2.60;65.00
68485;DHT22;55472;50.060;21.960;2022-12-29T06:16:11;2.60;64.60
68485;DHT22;55472;50.060;21.960;2022-12-29T06:18:37;2.60;64.80
68485;DHT22;55472;50.060;21.960;2022-12-29T06:21:05;2.60;64.70
68485;DHT22;55472;50.060;21.960;2022-12-29T06:23:31;2.60;64.80
68485;DHT22;55472;50.060;21.960;2022-12-29T06:25:58;2.60;64.80
68485;DHT22;55472;50.060;21.960;2022-12-29T06:28:24;2.70;64.80
68485;DHT22;55472;50.060;21.960;2022-12-29T06:30:50;2.60;64.90
68485;DHT22;55472;50.060;21.960;2022-12-29T06:33:17;2.60;65.10
68485;DHT22;55472;50.060;21.960;2022-12-29T06:35:44;2.60;65.20
68485;DHT22;55472;50.060;21.960;2022-12-29T06:38:11;2.60;65.30
68485;DHT22;55472;50.060;21.960;2022-12-29T06:40:38;2.60;65.30
68485;DHT22;55472;50.060;21.960;2022-12-29T06:43:05;2.60;65.30
68485;DHT22;55472;50.060;21.960;2022-12-29T06:45:31;2.60;65.60
68485;DHT22;55472;50.060;21.960;2022-12-29T06:47:57;2.60;65.50
68485;DHT22;55472;50.060;21.960;2022-12-29T06:50:23;2.60;65.60
68485;DHT22;55472;50.060;21.960;2022-12-29T06:52:49;2.60;65.50
68485;DHT22;55472;50.060;21.960;2022-12-29T06:55:16;2.70;65.30
68485;DHT22;55472;50.060;21.960;2022-12-29T06:57:42;2.70;65.30
68485;DHT22;55472;50.060;21.960;2022-12-29T07:00:09;2.70;65.40
68485;DHT22;55472;50.060;21.960;2022-12-29T07:02:35;2.70;65.30
68485;DHT22;55472;50.060;21.960;2022-12-29T07:05:02;2.80;64.90
68485;DHT22;55472;50.060;21.960;2022-12-29T07:07:28;2.80;64.90
68485;DHT22;55472;50.060;21.960;2022-12-29T07:09:54;2.80;65.00
68485;DHT22;55472;50.060;21.960;2022-12-29T07:12:21;2.90;64.70
68485;DHT22;55472;50.060;21.960;2022-12-29T07:14:47;2.90;64.50
68485;DHT22;55472;50.060;21.960;2022-12-29T07:17:14;2.90;64.50
68485;DHT22;55472;50.060;21.960;2022-12-29T07:19:40;2.90;64.60
68485;DHT22;55472;50.060;21.960;2022-12-29T07:22:06;3.00;64.60
68485;DHT22;55472;50.060;21.960;2022-12-29T07:24:33;3.00;64.50
68485;DHT22;55472;50.060;21.960;2022-12-29T07:26:59;3.00;64.50
68485;DHT22;55472;50.060;21.960;2022-12-29T07:29:25;3.10;64.40
68485;DHT22;55472;50.060;21.960;2022-12-29T07:31:51;3.10;64.30
68485;DHT22;55472;50.060;21.960;2022-12-29T07:34:17;3.20;63.90
68485;DHT22;55472;50.060;21.960;2022-12-29T07:36:43;3.30;64.10
68485;DHT22;55472;50.060;21.960;2022-12-29T07:39:10;3.30;63.90
68485;DHT22;55472;50.060;21.960;2022-12-29T07:41:37;3.40;63.80
68485;DHT22;55472;50.060;21.960;2022-12-29T07:44:03;3.50;63.60
68485;DHT22;55472;50.060;21.960;2022-12-29T07:46:29;3.60;63.60
68485;DHT22;55472;50.060;21.960;2022-12-29T07:48:56;3.60;63.60
68485;DHT22;55472;50.060;21.960;2022-12-29T07:51:22;3.70;63.40
68485;DHT22;55472;50.060;21.960;2022-12-29T07:53:48;3.70;63.30
68485;DHT22;55472;50.060;21.960;2022-12-29T07:56:14;3.80;63.30
68485;DHT22;55472;50.060;21.960;2022-12-29T07:58:41;3.70;63.40
68485;DHT22;55472;50.060;21.960;2022-12-29T08:01:08;3.80;63.40
68485;DHT22;55472;50.060;21.960;2022-12-29T08:03:34;3.80;63.40
68485;DHT22;55472;50.060;21.960;2022-12-29T08:06:02;3.80;63.50
68485;DHT22;55472;50.060;21.960;2022-12-29T08:08:28;3.80;63.60
68485;DHT22;55472;50.060;21.960;2022-12-29T08:10:54;3.80;63.60
68485;DHT22;55472;50.060;21.960;2022-12-29T08:13:21;3.80;63.70
68485;DHT22;55472;50.060;21.960;2022-12-29T08:15:46;3.80;64.00
68485;DHT22;55472;50.060;21.960;2022-12-29T08:18:13;3.90;63.80
68485;DHT22;55472;50.060;21.960;2022-12-29T08:20:39;3.90;64.00
68485;DHT22;55472;50.060;21.960;2022-12-29T08:23:05;3.90;64.00
68485;DHT22;55472;50.060;21.960;2022-12-29T08:25:31;4.00;63.70
68485;DHT22;55472;50.060;21.960;2022-12-29T08:27:58;4.10;63.60
68485;DHT22;55472;50.060;21.960;2022-12-29T08:30:24;4.20;63.40
68485;DHT22;55472;50.060;21.960;2022-12-29T08:32:50;4.20;63.40
68485;DHT22;55472;50.060;21.960;2022-12-29T08:35:16;4.40;63.00
68485;DHT22;55472;50.060;21.960;2022-12-29T08:37:42;4.50;62.80
68485;DHT22;55472;50.060;21.960;2022-12-29T08:40:09;4.60;62.70
68485;DHT22;55472;50.060;21.960;2022-12-29T08:42:36;4.70;62.10
68485;DHT22;55472;50.060;21.960;2022-12-29T08:45:02;4.70;62.20
68485;DHT22;55472;50.060;21.960;2022-12-29T08:47:29;4.80;61.90
68485;DHT22;55472;50.060;21.960;2022-12-29T08:49:55;4.80;62.30
68485;DHT22;55472;50.060;21.960;2022-12-29T08:52:21;4.80;62.30
68485;DHT22;55472;50.060;21.960;2022-12-29T08:54:47;5.00;62.00
68485;DHT22;55472;50.060;21.960;2022-12-29T08:57:13;5.00;61.90
68485;DHT22;55472;50.060;21.960;2022-12-29T08:59:39;4.90;62.10
68485;DHT22;55472;50.060;21.960;2022-12-29T09:02:08;4.90;62.20
68485;DHT22;55472;50.060;21.960;2022-12-29T09:04:36;4.80;62.30
68485;DHT22;55472;50.060;21.960;2022-12-29T09:07:02;4.70;62.50
68485;DHT22;55472;50.060;21.960;2022-12-29T09:09:28;4.70;63.10
68485;DHT22;55472;50.060;21.960;2022-12-29T09:11:55;4.70;62.80
68485;DHT22;55472;50.060;21.960;2022-12-29T09:14:21;4.70;63.00
68485;DHT22;55472;50.060;21.960;2022-12-29T09:16:53;4.70;63.10
68485;DHT22;55472;50.060;21.960;2022-12-29T09:19:38;4.80;63.00
68485;DHT22;55472;50.060;21.960;2022-12-29T09:22:05;4.90;63.00
68485;DHT22;55472;50.060;21.960;2022-12-29T09:24:31;5.00;62.90
68485;DHT22;55472;50.060;21.960;2022-12-29T09:26:57;5.00;62.30
68485;DHT22;55472;50.060;21.960;2022-12-29T09:29:23;5.10;62.20
68485;DHT22;55472;50.060;21.960;2022-12-29T09:31:51;5.20;62.30
68485;DHT22;55472;50.060;21.960;2022-12-29T09:34:17;5.20;62.00
68485;DHT22;55472;50.060;21.960;2022-12-29T09:36:43;5.10;62.10
68485;DHT22;55472;50.060;21.960;2022-12-29T09:39:09;5.10;62.40
68485;DHT22;55472;50.060;21.960;2022-12-29T09:41:40;5.20;62.40
68485;DHT22;55472;50.060;21.960;2022-12-29T09:47:13;5.40;61.90
68485;DHT22;55472;50.060;21.960;2022-12-29T09:49:44;5.50;61.90
68485;DHT22;55472;50.060;21.960;2022-12-29T09:52:44;5.60;61.50
68485;DHT22;55472;50.060;21.960;2022-12-29T09:55:20;5.70;61.20
68485;DHT22;55472;50.060;21.960;2022-12-29T09:57:57;5.70;61.20
68485;DHT22;55472;50.060;21.960;2022-12-29T10:00:37;5.70;61.20
68485;DHT22;55472;50.060;21.960;2022-12-29T10:03:14;5.80;61.10
68485;DHT22;55472;50.060;21.960;2022-12-29T10:05:50;5.70;61.10
68485;DHT22;55472;50.060;21.960;2022-12-29T10:08:47;5.80;61.20
68485;DHT22;55472;50.060;21.960;2022-12-29T10:20:34;5.90;60.80
68485;DHT22;55472;50.060;21.960;2022-12-29T10:23:42;5.80;60.90
68485;DHT22;55472;50.060;21.960;2022-12-29T10:26:18;5.80;61.20
68485;DHT22;55472;50.060;21.960;2022-12-29T10:28:53;5.70;61.20
68485;DHT22;55472;50.060;21.960;2022-12-29T10:31:28;5.70;61.30
68485;DHT22;55472;50.060;21.960;2022-12-29T10:34:06;5.70;61.70
68485;DHT22;55472;50.060;21.960;2022-12-29T10:36:47;5.70;61.60
68485;DHT22;55472;50.060;21.960;2022-12-29T10:39:49;5.80;61.80
68485;DHT22;55472;50.060;21.960;2022-12-29T10:42:29;5.80;61.50
68485;DHT22;55472;50.060;21.960;2022-12-29T10:45:03;5.80;61.60
68485;DHT22;55472;50.060;21.960;2022-12-29T10:47:34;5.80;61.50
68485;DHT22;55472;50.060;21.960;2022-12-29T10:50:02;5.90;61.40
68485;DHT22;55472;50.060;21.960;2022-12-29T10:52:31;5.90;61.20
68485;DHT22;55472;50.060;21.960;2022-12-29T10:55:13;5.90;61.40
68485;DHT22;55472;50.060;21.960;2022-12-29T10:57:44;5.90;61.50
68485;DHT22;55472;50.060;21.960;2022-12-29T11:00:17;6.00;61.80
68485;DHT22;55472;50.060;21.960;2022-12-29T11:05:56;6.10;61.50
68485;DHT22;55472;50.060;21.960;2022-12-29T11:08:30;6.20;61.60
68485;DHT22;55472;50.060;21.960;2022-12-29T11:11:03;6.30;61.20
68485;DHT22;55472;50.060;21.960;2022-12-29T11:13:34;6.30;61.40
68485;DHT22;55472;50.060;21.960;2022-12-29T11:16:01;6.30;61.00
68485;DHT22;55472;50.060;21.960;2022-12-29T11:24:20;7.00;59.80
68485;DHT22;55472;50.060;21.960;2022-12-29T11:27:10;7.30;59.10
68485;DHT22;55472;50.060;21.960;2022-12-29T11:29:42;7.60;58.00
68485;DHT22;55472;50.060;21.960;2022-12-29T11:32:22;7.60;58.30
68485;DHT22;55472;50.060;21.960;2022-12-29T11:34:50;7.50;58.20
68485;DHT22;55472;50.060;21.960;2022-12-29T11:37:19;7.40;58.80
68485;DHT22;55472;50.060;21.960;2022-12-29T11:40:07;7.50;58.40
68485;DHT22;55472;50.060;21.960;2022-12-29T11:42:55;7.50;58.40
68485;DHT22;55472;50.060;21.960;2022-12-29T11:45:26;7.70;58.10
68485;DHT22;55472;50.060;21.960;2022-12-29T11:48:15;7.80;57.60
68485;DHT22;55472;50.060;21.960;2022-12-29T11:50:52;8.00;57.20
68485;DHT22;55472;50.060;21.960;2022-12-29T11:53:42;8.10;56.50
68485;DHT22;55472;50.060;21.960;2022-12-29T11:56:15;8.00;56.80
68485;DHT22;55472;50.060;21.960;2022-12-29T11:58:42;8.00;56.60
68485;DHT22;55472;50.060;21.960;2022-12-29T12:04:11;8.00;56.70
68485;DHT22;55472;50.060;21.960;2022-12-29T12:07:15;7.90;56.90
68485;DHT22;55472;50.060;21.960;2022-12-29T12:09:54;8.00;56.80
68485;DHT22;55472;50.060;21.960;2022-12-29T12:15:30;7.80;56.90
68485;DHT22;55472;50.060;21.960;2022-12-29T12:18:11;7.40;58.30
68485;DHT22;55472;50.060;21.960;2022-12-29T12:20:54;7.20;58.80
68485;DHT22;55472;50.060;21.960;2022-12-29T12:26:39;7.20;59.50
68485;DHT22;55472;50.060;21.960;2022-12-29T12:29:24;7.30;59.30
68485;DHT22;55472;50.060;21.960;2022-12-29T12:31:57;7.50;59.10
68485;DHT22;55472;50.060;21.960;2022-12-29T12:34:33;7.50;59.30
68485;DHT22;55472;50.060;21.960;2022-12-29T12:57:01;7.40;60.10
68485;DHT22;55472;50.060;21.960;2022-12-29T13:15:09;7.30;60.80
68485;DHT22;55472;50.060;21.960;2022-12-29T13:17:57;7.30;60.70
68485;DHT22;55472;50.060;21.960;2022-12-29T13:23:58;7.30;60.90
68485;DHT22;55472;50.060;21.960;2022-12-29T13:29:17;7.30;60.80
68485;DHT22;55472;50.060;21.960;2022-12-29T13:32:09;7.20;61.10
68485;DHT22;55472;50.060;21.960;2022-12-29T13:34:54;7.20;61.50
68485;DHT22;55472;50.060;21.960;2022-12-29T13:37:27;7.00;61.80
68485;DHT22;55472;50.060;21.960;2022-12-29T13:39:58;6.90;62.20
68485;DHT22;55472;50.060;21.960;2022-12-29T13:42:28;6.80;62.50
68485;DHT22;55472;50.060;21.960;2022-12-29T13:45:03;6.70;62.70
68485;DHT22;55472;50.060;21.960;2022-12-29T13:47:38;6.70;63.00
68485;DHT22;55472;50.060;21.960;2022-12-29T13:50:19;6.60;63.30
68485;DHT22;55472;50.060;21.960;2022-12-29T13:53:54;6.50;63.50
68485;DHT22;55472;50.060;21.960;2022-12-29T13:56:24;6.40;63.90
68485;DHT22;55472;50.060;21.960;2022-12-29T14:02:24;6.20;64.90
68485;DHT22;55472;50.060;21.960;2022-12-29T14:05:02;6.00;65.50
68485;DHT22;55472;50.060;21.960;2022-12-29T14:07:30;5.90;66.10
68485;DHT22;55472;50.060;21.960;2022-12-29T14:10:03;5.80;66.40
68485;DHT22;55472;50.060;21.960;2022-12-29T14:12:43;5.70;66.80
68485;DHT22;55472;50.060;21.960;2022-12-29T14:17:40;5.70;67.10
68485;DHT22;55472;50.060;21.960;2022-12-29T14:20:18;5.60;67.30
68485;DHT22;55472;50.060;21.960;2022-12-29T14:23:00;5.60;67.60
68485;DHT22;55472;50.060;21.960;2022-12-29T14:28:29;5.50;68.20
68485;DHT22;55472;50.060;21.960;2022-12-29T14:31:01;5.40;68.30
68485;DHT22;55472;50.060;21.960;2022-12-29T14:33:33;5.40;68.60
68485;DHT22;55472;50.060;21.960;2022-12-29T14:36:33;5.30;68.80
68485;DHT22;55472;50.060;21.960;2022-12-29T14:39:01;5.30;69.30
68485;DHT22;55472;50.060;21.960;2022-12-29T14:41:38;5.20;69.50
68485;DHT22;55472;50.060;21.960;2022-12-29T14:49:26;5.20;70.00
68485;DHT22;55472;50.060;21.960;2022-12-29T14:52:12;5.20;70.10
68485;DHT22;55472;50.060;21.960;2022-12-29T14:54:49;5.10;70.20
68485;DHT22;55472;50.060;21.960;2022-12-29T14:57:29;5.10;70.40
68485;DHT22;55472;50.060;21.960;2022-12-29T15:00:14;5.00;70.60
68485;DHT22;55472;50.060;21.960;2022-12-29T15:02:46;5.00;70.80
68485;DHT22;55472;50.060;21.960;2022-12-29T15:05:42;5.00;71.10
68485;DHT22;55472;50.060;21.960;2022-12-29T15:08:12;5.00;71.20
68485;DHT22;55472;50.060;21.960;2022-12-29T15:10:48;4.90;71.50
68485;DHT22;55472;50.060;21.960;2022-12-29T15:13:23;4.90;71.80
68485;DHT22;55472;50.060;21.960;2022-12-29T15:15:58;4.90;71.80
68485;DHT22;55472;50.060;21.960;2022-12-29T15:18:29;4.90;72.00
68485;DHT22;55472;50.060;21.960;2022-12-29T15:21:01;4.80;72.20
68485;DHT22;55472;50.060;21.960;2022-12-29T15:23:31;4.80;72.60
68485;DHT22;55472;50.060;21.960;2022-12-29T15:26:02;4.70;72.80
68485;DHT22;55472;50.060;21.960;2022-12-29T15:28:44;4.60;73.10
68485;DHT22;55472;50.060;21.960;2022-12-29T15:31:23;4.60;73.50
68485;DHT22;55472;50.060;21.960;2022-12-29T15:33:53;4.50;73.60
68485;DHT22;55472;50.060;21.960;2022-12-29T15:36:28;4.50;74.00
68485;DHT22;55472;50.060;21.960;2022-12-29T15:38:55;4.50;74.30
68485;DHT22;55472;50.060;21.960;2022-12-29T15:41:31;4.40;74.70
68485;DHT22;55472;50.060;21.960;2022-12-29T15:44:45;4.40;74.70
68485;DHT22;55472;50.060;21.960;2022-12-29T15:47:26;4.40;75.00
68485;DHT22;55472;50.060;21.960;2022-12-29T15:50:30;4.50;75.00
68485;DHT22;55472;50.060;21.960;2022-12-29T15:52:58;4.50;75.30
68485;DHT22;55472;50.060;21.960;2022-12-29T15:55:45;4.50;75.30
68485;DHT22;55472;50.060;21.960;2022-12-29T15:58:22;4.50;75.40
68485;DHT22;55472;50.060;21.960;2022-12-29T16:00:55;4.40;75.40
68485;DHT22;55472;50.060;21.960;2022-12-29T16:03:29;4.40;75.50
68485;DHT22;55472;50.060;21.960;2022-12-29T16:09:00;4.50;75.40
68485;DHT22;55472;50.060;21.960;2022-12-29T16:11:32;4.40;75.50
68485;DHT22;55472;50.060;21.960;2022-12-29T16:14:02;4.40;75.50
68485;DHT22;55472;50.060;21.960;2022-12-29T16:16:39;4.40;75.50
68485;DHT22;55472;50.060;21.960;2022-12-29T16:19:21;4.40;75.60
68485;DHT22;55472;50.060;21.960;2022-12-29T16:21:50;4.40;75.50
68485;DHT22;55472;50.060;21.960;2022-12-29T16:24:19;4.40;75.60
68485;DHT22;55472;50.060;21.960;2022-12-29T16:26:59;4.50;75.70
68485;DHT22;55472;50.060;21.960;2022-12-29T16:29:29;4.40;75.70
68485;DHT22;55472;50.060;21.960;2022-12-29T16:31:58;4.40;75.70
68485;DHT22;55472;50.060;21.960;2022-12-29T16:34:41;4.40;75.80
68485;DHT22;55472;50.060;21.960;2022-12-29T16:37:32;4.50;75.70
68485;DHT22;55472;50.060;21.960;2022-12-29T16:40:24;4.50;75.70
68485;DHT22;55472;50.060;21.960;2022-12-29T16:43:01;4.50;75.70
68485;DHT22;55472;50.060;21.960;2022-12-29T16:48:18;4.40;76.10
68485;DHT22;55472;50.060;21.960;2022-12-29T16:50:48;4.50;76.00
68485;DHT22;55472;50.060;21.960;2022-12-29T16:53:24;4.40;76.10
68485;DHT22;55472;50.060;21.960;2022-12-29T16:55:53;4.40;76.10
68485;DHT22;55472;50.060;21.960;2022-12-29T16:58:26;4.40;75.90
68485;DHT22;55472;50.060;21.960;2022-12-29T17:01:00;4.40;76.10
68485;DHT22;55472;50.060;21.960;2022-12-29T17:03:38;4.40;76.10
68485;DHT22;55472;50.060;21.960;2022-12-29T17:06:16;4.30;76.30
68485;DHT22;55472;50.060;21.960;2022-12-29T17:08:45;4.30;76.70
68485;DHT22;55472;50.060;21.960;2022-12-29T17:11:29;4.30;76.80
68485;DHT22;55472;50.060;21.960;2022-12-29T17:16:56;4.30;77.20
68485;DHT22;55472;50.060;21.960;2022-12-29T17:19:30;4.30;77.20
68485;DHT22;55472;50.060;21.960;2022-12-29T17:21:58;4.40;77.40
68485;DHT22;55472;50.060;21.960;2022-12-29T17:24:25;4.40;77.20
68485;DHT22;55472;50.060;21.960;2022-12-29T17:26:57;4.40;77.30
68485;DHT22;55472;50.060;21.960;2022-12-29T17:29:34;4.50;77.20
68485;DHT22;55472;50.060;21.960;2022-12-29T17:32:06;4.50;77.10
68485;DHT22;55472;50.060;21.960;2022-12-29T17:34:36;4.50;77.10
68485;DHT22;55472;50.060;21.960;2022-12-29T17:37:02;4.50;77.20
68485;DHT22;55472;50.060;21.960;2022-12-29T17:39:29;4.50;77.00
68485;DHT22;55472;50.060;21.960;2022-12-29T17:41:55;4.50;76.90
68485;DHT22;55472;50.060;21.960;2022-12-29T17:44:27;4.50;77.00
68485;DHT22;55472;50.060;21.960;2022-12-29T17:46:53;4.50;76.90
68485;DHT22;55472;50.060;21.960;2022-12-29T17:49:20;4.50;77.10
68485;DHT22;55472;50.060;21.960;2022-12-29T17:51:46;4.50;77.10
68485;DHT22;55472;50.060;21.960;2022-12-29T17:54:21;4.50;77.20
68485;DHT22;55472;50.060;21.960;2022-12-29T17:56:49;4.40;77.20
68485;DHT22;55472;50.060;21.960;2022-12-29T17:59:16;4.40;77.20
68485;DHT22;55472;50.060;21.960;2022-12-29T18:01:44;4.40;77.20
68485;DHT22;55472;50.060;21.960;2022-12-29T18:04:14;4.40;77.50
68485;DHT22;55472;50.060;21.960;2022-12-29T18:06:42;4.40;77.50
68485;DHT22;55472;50.060;21.960;2022-12-29T18:09:09;4.40;77.40
68485;DHT22;55472;50.060;21.960;2022-12-29T18:11:38;4.40;77.50
68485;DHT22;55472;50.060;21.960;2022-12-29T18:14:16;4.30;77.50
68485;DHT22;55472;50.060;21.960;2022-12-29T18:16:43;4.30;77.60